Time;durP1;ratioP1;P1;durP2;ratioP2;P2;SDS_P1;SDS_P2;PMS_P1;PMS_P2;Temp;Humidity;BMP_temperature;BMP_pressure;BME280_temperature;BME280_humidity;BME280_pressure;Samples;Min_cycle;Max_cycle;Signal;HPM_P1;HPM_P2
2022/02/01 00:00:13;;;;;;;0.93;0.83;;;;;;;5.96;66.15;97529.84;8419042;28;20394;-80
2022/02/01 00:04:21;;;;;;;0.80;0.80;;;;;;;6.00;65.16;97544.25;8385877;28;20230;-80
2022/02/01 00:08:33;;;;;;;1.40;0.90;;;;;;;6.16;65.07;97548.91;8385821;28;20535;-80
2022/02/01 00:12:45;;;;;;;1.10;1.00;;;;;;;5.94;65.00;97554.72;8385161;28;20294;-80
2022/02/01 00:17:16;;;;;;;1.00;0.90;;;;;;;5.99;64.66;97565.69;8385670;28;20565;-80
2022/02/01 00:34:59;;;;;;;0.70;0.70;;;;;;;6.09;62.51;97579.09;8417994;28;20230;-80
2022/02/01 00:39:01;;;;;;;0.70;0.70;;;;;;;6.08;62.16;97585.13;8417053;28;20414;-81
2022/02/01 00:43:05;;;;;;;0.70;0.70;;;;;;;5.79;62.79;97592.00;8418070;28;20230;-80
2022/02/01 00:47:09;;;;;;;1.43;0.80;;;;;;;5.85;62.34;97611.53;8417706;28;20239;-81
2022/02/01 00:51:13;;;;;;;0.70;0.70;;;;;;;5.86;61.76;97608.06;8418124;28;20426;-81
2022/02/01 00:55:18;;;;;;;0.97;0.90;;;;;;;5.91;61.89;97626.75;8416784;28;20231;-81
2022/02/01 00:59:21;;;;;;;1.20;0.80;;;;;;;6.02;61.34;97632.44;8417535;28;20276;-81
2022/02/01 01:03:24;;;;;;;0.97;0.97;;;;;;;5.79;60.88;97647.72;8417174;28;20534;-81
2022/02/01 01:07:27;;;;;;;1.10;1.00;;;;;;;5.72;60.65;97659.06;8417766;28;20230;-81
2022/02/01 01:11:32;;;;;;;2.07;1.13;;;;;;;5.66;60.91;97680.63;8417329;28;20411;-80
2022/02/01 01:15:37;;;;;;;1.10;1.00;;;;;;;5.88;60.00;97691.97;8416900;28;20267;-81
2022/02/01 01:46:05;;;;;;;1.50;1.37;;;;;;;5.31;60.04;97762.06;8417684;28;20226;-81
2022/02/01 01:54:35;;;;;;;2.10;1.60;;;;;;;5.51;60.28;97771.81;8417837;28;20199;-80
2022/02/01 01:58:42;;;;;;;2.27;1.50;;;;;;;5.53;60.49;97769.22;8415822;28;20420;-80
2022/02/01 02:02:46;;;;;;;2.30;1.47;;;;;;;5.38;60.50;97776.44;8415250;28;20233;-80
2022/02/01 02:06:50;;;;;;;2.50;1.90;;;;;;;5.49;60.69;97778.72;8415089;28;20242;-80
2022/02/01 02:10:59;;;;;;;1.70;1.60;;;;;;;5.38;61.00;97794.41;8415308;28;20231;-80
2022/02/01 02:15:04;;;;;;;2.53;1.80;;;;;;;5.50;60.09;97790.66;8415033;28;20253;-80
2022/02/01 02:19:09;;;;;;;1.90;1.80;;;;;;;5.39;60.02;97795.28;8414922;28;20280;-80
2022/02/01 02:23:13;;;;;;;1.83;1.73;;;;;;;5.53;59.46;97800.03;8414618;28;20233;-80
2022/02/01 02:27:16;;;;;;;2.30;2.10;;;;;;;5.66;59.56;97809.09;8414870;28;20230;-80
2022/02/01 02:31:22;;;;;;;1.90;1.80;;;;;;;5.60;59.43;97820.38;8414858;28;20234;-80
2022/02/01 02:35:30;;;;;;;2.67;2.23;;;;;;;5.66;59.01;97817.63;8414706;28;20231;-80
2022/02/01 02:39:46;;;;;;;2.80;2.60;;;;;;;5.71;59.49;97829.50;8414005;28;20237;-80
2022/02/01 02:48:15;;;;;;;3.27;2.97;;;;;;;5.62;58.80;97844.28;8414547;28;20301;-80
2022/02/01 02:52:19;;;;;;;3.00;2.73;;;;;;;5.85;58.68;97847.97;8414115;28;20234;-82
2022/02/01 02:56:23;;;;;;;3.53;3.23;;;;;;;5.77;58.64;97840.47;8413864;28;20227;-82
2022/02/01 03:00:26;;;;;;;4.53;4.13;;;;;;;6.01;58.15;97843.28;8413723;28;20534;-82
2022/02/01 03:04:31;;;;;;;6.83;4.37;;;;;;;5.85;58.83;97855.69;8413859;28;20250;-83
2022/02/01 03:08:35;;;;;;;4.80;4.40;;;;;;;5.93;58.29;97869.16;8413095;28;20218;-82
2022/02/01 03:13:05;;;;;;;5.27;4.80;;;;;;;5.81;58.71;97882.38;8413662;28;20419;-81
2022/02/01 03:17:18;;;;;;;4.97;4.50;;;;;;;5.68;57.56;97898.09;8413416;28;20231;-80
2022/02/01 03:21:21;;;;;;;5.70;5.20;;;;;;;5.48;57.78;97914.03;8413909;28;20588;-81
2022/02/01 03:25:24;;;;;;;5.93;4.70;;;;;;;5.68;57.53;97904.97;8413578;28;20230;-81
2022/02/01 03:29:31;;;;;;;6.17;5.57;;;;;;;5.87;56.91;97908.72;8413465;28;20233;-81
2022/02/01 03:33:35;;;;;;;6.00;5.47;;;;;;;5.57;56.80;97912.09;8413187;28;20222;-81
2022/02/01 03:37:38;;;;;;;6.63;5.93;;;;;;;5.60;56.64;97901.75;8413201;28;20245;-81
2022/02/01 03:41:40;;;;;;;6.60;5.43;;;;;;;5.78;56.79;97893.53;8413404;28;20239;-81
2022/02/01 03:45:45;;;;;;;6.67;6.00;;;;;;;5.67;56.16;97899.00;8413166;28;20235;-81
2022/02/01 03:49:50;;;;;;;7.23;6.53;;;;;;;5.86;56.73;97904.50;8413350;28;20242;-81
2022/02/01 03:53:53;;;;;;;6.60;5.93;;;;;;;5.87;56.83;97902.75;8413387;28;20237;-80
2022/02/01 03:57:57;;;;;;;8.07;6.57;;;;;;;5.99;57.74;97904.19;8413499;28;20234;-81
2022/02/01 04:02:02;;;;;;;8.33;7.53;;;;;;;6.07;57.22;97895.38;8412570;28;20231;-81
2022/02/01 04:06:05;;;;;;;10.90;9.57;;;;;;;6.04;58.14;97886.91;8412668;28;20226;-81
2022/02/01 04:10:09;;;;;;;11.23;10.13;;;;;;;6.01;58.07;97898.09;8412887;28;20234;-81
2022/02/01 04:14:16;;;;;;;11.30;10.30;;;;;;;6.15;57.91;97910.59;8415428;28;20230;-81
2022/02/01 04:18:21;;;;;;;11.27;10.17;;;;;;;6.28;57.46;97903.38;8419120;28;20234;-81
2022/02/01 04:22:23;;;;;;;11.10;10.10;;;;;;;6.29;57.60;97914.53;8418656;28;20237;-81
2022/02/01 04:26:27;;;;;;;10.50;9.50;;;;;;;6.35;57.36;97924.63;8418651;28;20589;-80
2022/02/01 04:30:30;;;;;;;10.97;9.87;;;;;;;6.11;57.92;97931.28;8418478;28;20231;-80
2022/02/01 04:34:34;;;;;;;10.17;9.20;;;;;;;6.31;56.72;97931.59;8417664;28;20560;-81
2022/02/01 04:38:40;;;;;;;10.80;9.37;;;;;;;6.39;56.82;97941.66;8417695;28;20230;-81
2022/02/01 04:42:44;;;;;;;12.93;10.03;;;;;;;6.43;56.60;97938.94;8418073;28;20545;-83
2022/02/01 04:46:47;;;;;;;10.17;8.93;;;;;;;6.35;56.76;97937.50;8417392;28;20235;-80
2022/02/01 04:50:51;;;;;;;10.03;8.73;;;;;;;6.46;56.32;97930.31;8417579;28;20252;-80
2022/02/01 04:54:54;;;;;;;11.10;9.30;;;;;;;6.26;56.75;97920.56;8417529;28;20234;-80
2022/02/01 04:58:58;;;;;;;10.30;8.93;;;;;;;6.33;56.71;97926.41;8417651;28;20420;-82
2022/02/01 05:03:01;;;;;;;9.50;8.50;;;;;;;6.26;57.49;97938.56;8417106;28;20234;-82
2022/02/01 05:07:06;;;;;;;12.17;8.60;;;;;;;6.03;58.14;97940.03;8417364;28;20599;-81
2022/02/01 05:11:09;;;;;;;9.23;8.37;;;;;;;6.05;58.34;97955.44;8417124;28;20231;-81
2022/02/01 05:15:12;;;;;;;9.83;8.80;;;;;;;6.00;58.62;97965.00;8416773;28;20230;-81
2022/02/01 05:19:24;;;;;;;10.13;8.37;;;;;;;6.02;58.87;97983.81;8426710;28;20231;-81
2022/02/01 05:23:28;;;;;;;9.93;8.43;;;;;;;6.04;59.37;97982.03;8430111;28;20222;-80
2022/02/01 05:27:31;;;;;;;8.90;8.00;;;;;;;6.09;59.43;97976.75;8432816;28;20219;-81
2022/02/01 05:31:35;;;;;;;9.27;7.93;;;;;;;5.95;59.85;97966.81;8421794;28;20218;-81
2022/02/01 05:35:38;;;;;;;10.83;6.73;;;;;;;5.82;60.46;97966.28;8431510;28;20226;-81
2022/02/01 05:39:42;;;;;;;10.60;6.10;;;;;;;5.77;61.19;97956.13;8432098;28;20522;-80
2022/02/01 05:43:45;;;;;;;9.73;6.00;;;;;;;5.71;61.52;97956.25;8431883;28;20231;-80
2022/02/01 05:47:51;;;;;;;8.70;5.97;;;;;;;6.02;60.40;97947.81;8430883;28;20247;-81
2022/02/01 05:51:54;;;;;;;13.43;6.13;;;;;;;5.71;61.46;97955.41;8437906;28;20230;-81
2022/02/01 05:55:58;;;;;;;11.63;5.80;;;;;;;5.78;61.00;97955.22;8448899;28;20230;-79
2022/02/01 06:00:01;;;;;;;8.87;5.33;;;;;;;5.62;61.33;97964.22;8449236;28;20254;-80
2022/02/01 06:04:05;;;;;;;11.60;5.37;;;;;;;5.54;61.87;97976.38;8422850;28;20226;-80
2022/02/01 06:08:09;;;;;;;9.23;5.00;;;;;;;5.65;61.75;97962.41;8419795;28;20221;-80
2022/02/01 06:12:13;;;;;;;10.70;4.97;;;;;;;5.77;61.48;97965.53;8430178;28;20226;-80
2022/02/01 06:16:16;;;;;;;11.67;4.70;;;;;;;6.01;59.99;97984.69;8397504;28;20242;-79
2022/02/01 06:20:19;;;;;;;12.73;4.80;;;;;;;6.28;59.36;97987.41;8414249;28;20404;-79
2022/02/01 06:24:22;;;;;;;10.37;4.60;;;;;;;6.40;58.58;97982.78;8414729;28;20230;-78
2022/02/01 06:28:29;;;;;;;11.40;4.60;;;;;;;6.18;59.99;97987.66;8414457;28;20239;-78
2022/02/01 06:32:33;;;;;;;13.60;4.53;;;;;;;6.46;58.93;98002.34;8432320;28;20259;-78
2022/02/01 06:36:36;;;;;;;12.87;5.07;;;;;;;6.53;58.02;97993.59;8447304;28;20222;-80
2022/02/01 06:40:40;;;;;;;14.00;4.63;;;;;;;5.90;60.02;98002.91;8447738;28;20261;-79
2022/02/01 06:44:46;;;;;;;15.83;4.87;;;;;;;6.06;59.92;98026.53;8447902;28;20226;-79
2022/02/01 06:48:49;;;;;;;16.03;4.17;;;;;;;6.01;59.41;98026.66;8447560;28;20242;-79
2022/02/01 06:52:55;;;;;;;16.33;4.90;;;;;;;5.79;59.74;98046.03;8417623;28;20292;-80
2022/02/01 06:56:59;;;;;;;15.70;3.97;;;;;;;5.88;59.57;98058.63;8414101;28;20237;-80
2022/02/01 07:01:08;;;;;;;20.60;4.73;;;;;;;5.84;59.38;98086.13;8413847;28;20241;-81
2022/02/01 07:05:11;;;;;;;18.80;4.77;;;;;;;5.71;59.25;98107.84;8414204;28;20233;-81
2022/02/01 07:09:15;;;;;;;21.27;5.13;;;;;;;5.92;58.21;98113.41;8413994;28;20233;-80
2022/02/01 07:13:19;;;;;;;20.27;4.80;;;;;;;6.02;57.67;98110.63;8414336;28;20233;-81
2022/02/01 07:17:24;;;;;;;19.43;4.63;;;;;;;5.95;56.44;98103.06;8413622;28;20242;-81
2022/02/01 07:21:28;;;;;;;21.70;5.27;;;;;;;5.79;56.87;98098.28;8413516;28;20240;-81
2022/02/01 07:25:33;;;;;;;20.13;4.70;;;;;;;5.46;57.22;98103.28;8413462;28;20264;-82
2022/02/01 07:29:36;;;;;;;20.57;5.03;;;;;;;5.80;56.29;98115.38;8413713;28;20525;-81
2022/02/01 07:33:41;;;;;;;24.47;5.77;;;;;;;6.01;55.41;98101.19;8413691;28;20235;-81
2022/02/01 07:37:44;;;;;;;22.90;5.37;;;;;;;5.94;55.28;98109.06;8413770;28;20232;-81
2022/02/01 07:41:48;;;;;;;22.07;5.53;;;;;;;6.01;55.55;98113.22;8414085;28;20235;-80
2022/02/01 07:45:52;;;;;;;23.50;5.87;;;;;;;6.25;54.80;98122.06;8413451;28;20250;-81
2022/02/01 07:49:56;;;;;;;24.60;5.33;;;;;;;6.00;54.38;98127.81;8418729;28;20245;-81
2022/02/01 07:53:59;;;;;;;24.03;5.37;;;;;;;6.67;53.44;98118.47;8419168;28;20230;-80
2022/02/01 07:58:02;;;;;;;23.27;5.77;;;;;;;6.74;52.49;98140.56;8419339;28;20248;-80
2022/02/01 08:02:16;;;;;;;20.53;5.53;;;;;;;6.50;53.08;98134.34;8419194;28;20222;-80
2022/02/01 08:06:41;;;;;;;24.53;6.40;;;;;;;6.72;52.56;98153.50;8418369;28;20237;-81
2022/02/01 08:10:47;;;;;;;29.30;6.83;;;;;;;6.32;53.26;98151.91;8418796;28;20245;-80
2022/02/01 08:19:35;;;;;;;25.47;6.63;;;;;;;6.63;53.14;98154.56;8341683;28;20238;-80
2022/02/01 08:23:41;;;;;;;26.80;6.00;;;;;;;6.55;53.13;98153.06;8417987;28;20227;-80
2022/02/01 08:27:44;;;;;;;20.53;5.90;;;;;;;6.52;53.18;98148.84;8418418;28;20324;-81
2022/02/01 08:31:47;;;;;;;22.17;5.53;;;;;;;6.58;53.34;98148.69;8418465;28;20242;-80
2022/02/01 08:35:51;;;;;;;20.20;5.37;;;;;;;6.49;53.61;98140.34;8418198;28;20319;-79
2022/02/01 08:39:56;;;;;;;24.43;5.13;;;;;;;6.55;53.36;98141.06;8418161;28;20238;-79
2022/02/01 08:44:00;;;;;;;19.60;5.33;;;;;;;6.63;53.75;98140.84;8418025;28;20233;-79
2022/02/01 08:48:03;;;;;;;21.07;5.40;;;;;;;6.76;53.66;98144.81;8417759;28;20238;-79
2022/02/01 08:52:10;;;;;;;16.63;4.70;;;;;;;7.66;73.91;98126.88;8417359;28;20238;-79
2022/02/01 09:00:52;;;;;;;18.00;4.90;;;;;;;8.43;50.67;98111.56;8415929;28;20239;-80
2022/02/01 09:04:55;;;;;;;27.60;6.60;;;;;;;7.51;52.16;98135.88;8418412;28;20237;-79
2022/02/01 09:08:58;;;;;;;20.80;5.70;;;;;;;7.32;52.61;98138.97;8418738;28;20237;-79
2022/02/01 09:13:03;;;;;;;20.20;5.33;;;;;;;7.33;52.97;98134.66;8417949;28;20229;-78
2022/02/01 09:17:07;;;;;;;17.93;5.13;;;;;;;7.13;53.50;98127.50;8417205;28;20230;-79
2022/02/01 09:21:12;;;;;;;22.73;5.50;;;;;;;7.30;53.54;98129.63;8417926;28;20242;-78
2022/02/01 09:25:17;;;;;;;23.10;5.70;;;;;;;7.13;54.12;98133.50;8418363;28;20545;-78
2022/02/01 09:29:22;;;;;;;18.90;5.73;;;;;;;6.94;54.01;98137.47;8417850;28;20230;-78
2022/02/01 09:33:25;;;;;;;20.90;5.70;;;;;;;6.95;54.18;98128.84;8416448;28;20234;-77
2022/02/01 09:37:28;;;;;;;23.13;5.33;;;;;;;6.79;54.33;98126.69;8417631;28;20234;-78
2022/02/01 09:41:33;;;;;;;23.53;5.10;;;;;;;6.77;54.46;98120.75;8401661;28;20246;-79
2022/02/01 09:45:37;;;;;;;28.43;5.67;;;;;;;6.71;54.28;98123.47;8395825;28;20569;-80
2022/02/01 09:49:41;;;;;;;22.60;5.40;;;;;;;7.09;53.50;98125.91;8416068;28;20239;-80
2022/02/01 09:53:44;;;;;;;19.77;5.53;;;;;;;6.81;53.29;98126.66;8442122;28;20559;-80
2022/02/01 09:57:52;;;;;;;17.07;5.37;;;;;;;6.90;53.41;98135.88;8449644;28;20240;-79
2022/02/01 10:01:57;;;;;;;19.33;6.20;;;;;;;6.90;52.82;98117.84;8449608;28;20234;-80
2022/02/01 10:06:07;;;;;;;20.40;5.33;;;;;;;7.02;52.78;98115.75;8450854;28;20450;-79
2022/02/01 10:10:12;;;;;;;21.07;5.47;;;;;;;7.37;52.52;98121.66;8450833;28;20564;-78
2022/02/01 10:14:23;;;;;;;17.90;4.63;;;;;;;7.09;53.26;98110.47;8451372;28;20229;-79
2022/02/01 10:18:28;;;;;;;17.83;4.20;;;;;;;7.07;52.64;98105.34;8451353;28;20230;-79
2022/02/01 10:22:34;;;;;;;17.10;4.13;;;;;;;7.12;52.76;98095.78;8449460;28;20233;-80
2022/02/01 10:26:37;;;;;;;16.07;3.87;;;;;;;7.11;52.69;98090.66;8449638;28;20240;-80
2022/02/01 10:30:44;;;;;;;15.20;3.97;;;;;;;7.30;51.69;98068.63;8450097;28;20237;-80
2022/02/01 10:34:49;;;;;;;18.43;3.93;;;;;;;7.31;51.92;98078.06;8449413;28;20236;-79
2022/02/01 10:39:22;;;;;;;15.33;3.93;;;;;;;7.40;51.21;98077.75;8450400;28;20237;-79
2022/02/01 10:43:29;;;;;;;14.30;3.80;;;;;;;7.49;50.92;98057.78;8448830;28;20355;-79
2022/02/01 10:47:34;;;;;;;17.20;3.93;;;;;;;7.33;51.49;98047.06;8448001;28;20233;-80
2022/02/01 10:51:59;;;;;;;17.50;3.73;;;;;;;7.15;50.94;98036.44;8438644;28;20253;-79
2022/02/01 10:56:20;;;;;;;12.37;3.40;;;;;;;6.70;52.28;98030.84;8414963;28;20545;-80
2022/02/01 11:00:23;;;;;;;14.80;3.50;;;;;;;6.84;52.67;98024.44;8414745;28;20234;-82
2022/02/01 11:04:28;;;;;;;17.43;3.70;;;;;;;7.24;52.06;98010.41;8413067;28;20230;-82
2022/02/01 11:08:39;;;;;;;14.27;3.63;;;;;;;7.23;51.62;97990.72;8413854;28;20242;-82
2022/02/01 11:12:44;;;;;;;13.07;3.20;;;;;;;7.08;52.10;97996.28;8414566;28;20241;-82
2022/02/01 11:16:47;;;;;;;11.37;3.53;;;;;;;7.10;52.35;97973.94;8414842;28;20230;-81
2022/02/01 11:21:14;;;;;;;15.43;4.00;;;;;;;7.05;52.20;97963.75;8414516;28;20572;-82
2022/02/01 11:25:21;;;;;;;12.67;3.40;;;;;;;7.43;51.29;97950.59;8421527;28;20234;-82
2022/02/01 11:29:38;;;;;;;16.53;4.00;;;;;;;7.36;51.71;97943.94;8421512;28;20555;-81
2022/02/01 11:33:42;;;;;;;12.87;4.33;;;;;;;7.51;51.78;97922.00;8420640;28;20226;-81
2022/02/01 11:37:51;;;;;;;14.17;4.40;;;;;;;7.73;51.01;97912.66;8421129;28;20230;-82
2022/02/01 11:42:01;;;;;;;13.03;3.47;;;;;;;7.58;51.04;97902.88;8420910;28;20237;-81
2022/02/01 11:46:07;;;;;;;13.10;3.57;;;;;;;8.10;50.00;97905.41;8420351;28;20234;-83
2022/02/01 11:50:13;;;;;;;19.03;3.77;;;;;;;7.77;50.69;97903.09;8421176;28;20239;-82
2022/02/01 11:54:20;;;;;;;9.20;2.90;;;;;;;7.68;51.01;97893.91;8421136;28;20521;-83
2022/02/01 11:58:30;;;;;;;12.43;3.67;;;;;;;7.10;51.39;97890.66;8421001;28;20227;-82
2022/02/01 12:02:37;;;;;;;11.07;3.13;;;;;;;7.29;51.51;97886.63;8420324;28;20250;-82
2022/02/01 12:06:45;;;;;;;11.07;3.57;;;;;;;7.56;51.62;97873.72;8420321;28;20534;-82
2022/02/01 12:10:50;;;;;;;13.07;3.30;;;;;;;7.25;51.48;97856.69;8419606;28;20239;-82
2022/02/01 12:14:58;;;;;;;12.23;3.10;;;;;;;7.39;50.81;97840.78;8420407;28;20230;-84
2022/02/01 12:19:04;;;;;;;10.53;3.33;;;;;;;7.39;51.40;97839.06;8419573;28;20230;-83
2022/02/01 12:23:19;;;;;;;13.33;3.23;;;;;;;7.28;51.27;97833.41;8418853;28;20437;-83
2022/02/01 12:27:22;;;;;;;9.87;3.20;;;;;;;7.54;51.07;97826.53;8418625;28;20235;-83
2022/02/01 12:31:29;;;;;;;14.93;3.10;;;;;;;7.46;51.38;97831.94;8417739;28;20634;-83
2022/02/01 12:35:34;;;;;;;10.87;3.23;;;;;;;7.45;51.30;97822.53;8416745;28;20226;-82
2022/02/01 12:39:43;;;;;;;10.97;2.97;;;;;;;7.20;52.77;97813.06;8418323;28;20228;-83
2022/02/01 12:48:13;;;;;;;11.07;3.43;;;;;;;7.18;54.17;97808.88;8418359;28;20297;-83
2022/02/01 12:52:18;;;;;;;11.10;3.77;;;;;;;7.02;54.45;97800.78;8418423;28;20227;-80
2022/02/01 12:56:25;;;;;;;13.50;4.73;;;;;;;7.01;55.31;97793.97;8427071;28;20609;-83
2022/02/01 13:00:28;;;;;;;9.03;3.60;;;;;;;7.18;54.84;97770.25;8433912;28;20246;-83
2022/02/01 13:04:33;;;;;;;11.80;4.03;;;;;;;6.91;55.25;97762.53;8433658;28;20223;-83
2022/02/01 13:12:54;;;;;;;12.83;3.50;;;;;;;6.99;56.38;97750.25;8432896;28;20237;-82
2022/02/01 13:13:18;;;;;;;10.37;2.77;;;;;;;6.79;56.53;97743.16;8420975;28;20230;-82
2022/02/01 13:17:39;;;;;;;9.90;3.30;;;;;;;7.23;55.65;97733.13;8421127;28;20234;-82
2022/02/01 13:21:46;;;;;;;7.43;2.70;;;;;;;7.08;55.55;97712.19;8430132;28;20221;-82
2022/02/01 13:25:50;;;;;;;11.67;4.63;;;;;;;6.87;56.59;97706.03;8433955;28;20229;-83
2022/02/01 13:30:05;;;;;;;7.93;3.10;;;;;;;6.80;56.69;97700.28;8435843;28;20406;-82
2022/02/01 13:34:11;;;;;;;12.80;3.07;;;;;;;6.82;57.26;97695.91;8433877;28;20237;-82
2022/02/01 13:38:31;;;;;;;9.60;3.00;;;;;;;6.71;57.27;97683.38;8446763;28;20255;-82
2022/02/01 13:42:36;;;;;;;8.37;3.10;;;;;;;6.50;57.52;97668.66;8449717;28;20392;-82
2022/02/01 13:46:44;;;;;;;8.17;3.23;;;;;;;6.61;56.73;97662.28;8450011;28;20278;-82
2022/02/01 13:50:48;;;;;;;9.67;3.10;;;;;;;6.75;56.73;97661.81;8447324;28;20257;-82
2022/02/01 13:54:53;;;;;;;8.40;3.47;;;;;;;6.78;56.79;97655.72;8419978;28;20249;-81
2022/02/01 13:59:07;;;;;;;8.70;3.30;;;;;;;6.54;57.20;97627.34;8416935;28;20240;-81
2022/02/01 14:03:20;;;;;;;9.07;3.43;;;;;;;6.82;56.31;97616.13;8415487;28;20234;-82
2022/02/01 14:07:34;;;;;;;7.00;2.50;;;;;;;6.67;56.82;97616.66;8415842;28;20247;-82
2022/02/01 14:12:00;;;;;;;7.70;3.10;;;;;;;6.53;57.37;97609.38;8416629;28;20429;-83
2022/02/01 14:16:25;;;;;;;6.37;3.03;;;;;;;6.67;57.51;97604.63;8434559;28;20230;-82
2022/02/01 14:33:49;;;;;;;5.17;2.10;;;;;;;6.57;58.66;97539.78;8391645;28;20230;-84
2022/02/01 14:38:04;;;;;;;5.17;2.07;;;;;;;6.49;58.93;97528.06;8431975;28;20236;-84
2022/02/01 14:46:30;;;;;;;4.63;1.80;;;;;;;6.61;59.47;97525.06;8433954;28;20240;-82
2022/02/01 14:50:33;;;;;;;6.90;2.30;;;;;;;6.61;58.82;97507.06;8432463;28;20265;-82
2022/02/01 14:54:42;;;;;;;3.00;1.80;;;;;;;6.61;59.11;97500.16;8435693;28;20233;-82
2022/02/01 15:07:47;;;;;;;5.47;2.00;;;;;;;6.22;60.75;97497.25;8428584;28;20233;-83
2022/02/01 15:12:03;;;;;;;4.13;1.90;;;;;;;6.28;60.95;97494.47;8430977;28;20393;-82
2022/02/01 15:16:07;;;;;;;3.80;1.83;;;;;;;6.28;60.64;97473.88;8430235;28;20254;-82
2022/02/01 15:20:12;;;;;;;3.57;1.70;;;;;;;6.16;60.96;97470.03;8432584;28;20238;-81
2022/02/01 15:24:17;;;;;;;4.63;1.90;;;;;;;6.09;61.68;97453.13;8433373;28;20241;-81
2022/02/01 15:28:21;;;;;;;3.83;1.70;;;;;;;5.78;61.96;97437.88;8431658;28;20229;-81
2022/02/01 15:32:24;;;;;;;2.53;1.40;;;;;;;6.01;61.81;97416.56;8434084;28;20560;-81
2022/02/01 15:36:40;;;;;;;3.93;1.60;;;;;;;6.01;61.56;97412.25;8428093;28;20521;-82
2022/02/01 15:58:12;;;;;;;4.83;1.70;;;;;;;5.93;62.04;97374.84;8427021;28;20538;-80
2022/02/01 16:02:16;;;;;;;2.40;1.50;;;;;;;5.59;63.55;97384.53;8426937;28;20244;-80
2022/02/01 16:06:20;;;;;;;2.30;1.50;;;;;;;5.63;63.32;97373.25;8432962;28;20545;-80
2022/02/01 16:10:33;;;;;;;1.63;1.30;;;;;;;5.65;63.25;97363.81;8451965;28;20279;-80
2022/02/01 16:14:36;;;;;;;2.57;1.50;;;;;;;5.50;64.07;97356.59;8451669;28;20267;-80
2022/02/01 16:18:40;;;;;;;2.07;1.23;;;;;;;5.64;63.29;97346.69;8418922;28;20237;-79
2022/02/01 16:22:44;;;;;;;2.03;0.93;;;;;;;5.62;63.18;97333.06;8419002;28;20238;-79
2022/02/01 16:26:49;;;;;;;2.07;1.10;;;;;;;5.56;63.50;97356.41;8419163;28;20241;-80
2022/02/01 16:30:52;;;;;;;0.90;0.90;;;;;;;5.83;63.09;97338.34;8418829;28;20227;-79
2022/02/01 16:34:55;;;;;;;1.63;0.97;;;;;;;5.75;63.71;97351.47;8419170;28;20568;-80
2022/02/01 16:39:02;;;;;;;1.30;1.20;;;;;;;5.90;63.00;97326.94;8418734;28;20392;-79
2022/02/01 16:43:10;;;;;;;0.83;0.83;;;;;;;5.61;63.69;97315.97;8419411;28;20290;-80
2022/02/01 16:47:14;;;;;;;1.20;0.90;;;;;;;5.75;64.20;97327.50;8420234;28;20231;-79
2022/02/01 16:51:38;;;;;;;1.47;0.80;;;;;;;5.85;63.87;97326.28;8418025;28;20230;-81
2022/02/01 16:55:47;;;;;;;1.27;1.17;;;;;;;5.81;64.17;97329.88;8418709;28;20231;-82
2022/02/01 16:59:56;;;;;;;2.43;1.87;;;;;;;5.75;64.41;97337.78;8420118;28;20250;-78
2022/02/01 17:03:59;;;;;;;1.83;0.90;;;;;;;5.63;64.84;97329.59;8431005;28;20237;-80
2022/02/01 17:08:02;;;;;;;1.30;1.03;;;;;;;5.84;64.82;97311.75;8445082;28;20226;-81
2022/02/01 17:12:14;;;;;;;1.83;1.70;;;;;;;5.85;64.37;97316.84;8452800;28;20241;-80
2022/02/01 17:16:43;;;;;;;2.30;1.97;;;;;;;5.93;64.36;97318.31;8453919;28;20233;-80
2022/02/01 17:25:08;;;;;;;2.23;1.60;;;;;;;5.83;64.64;97307.53;8414257;28;20238;-80
2022/02/01 17:29:11;;;;;;;1.40;1.30;;;;;;;5.76;65.57;97308.63;8406263;28;20229;-81
2022/02/01 17:33:18;;;;;;;3.53;3.20;;;;;;;6.06;65.09;97310.13;8387245;28;20231;-81
2022/02/01 17:37:22;;;;;;;1.87;1.43;;;;;;;5.95;65.25;97308.81;8418474;28;20248;-81
2022/02/01 17:41:25;;;;;;;3.50;1.83;;;;;;;6.05;64.78;97307.59;8418452;28;20227;-80
2022/02/01 17:45:28;;;;;;;0.80;0.80;;;;;;;5.89;64.53;97281.59;8420186;28;20235;-81
2022/02/01 17:49:36;;;;;;;1.50;1.40;;;;;;;5.79;65.79;97277.69;8418462;28;20235;-81
2022/02/01 17:53:42;;;;;;;2.47;2.10;;;;;;;6.02;65.05;97271.75;8417551;28;20242;-80
2022/02/01 17:57:48;;;;;;;1.93;1.63;;;;;;;5.93;65.01;97270.31;8416870;28;20246;-82
2022/02/01 18:01:52;;;;;;;2.20;1.60;;;;;;;5.73;66.11;97286.47;8418415;28;20243;-80
2022/02/01 18:05:57;;;;;;;1.50;1.40;;;;;;;5.91;66.33;97246.41;8417561;28;20536;-79
2022/02/01 18:10:02;;;;;;;1.60;1.20;;;;;;;6.05;65.47;97249.34;8417649;28;20333;-79
2022/02/01 18:14:19;;;;;;;1.37;1.20;;;;;;;5.82;65.82;97244.16;8418642;28;20420;-80
2022/02/01 18:18:22;;;;;;;1.00;0.70;;;;;;;5.57;66.94;97252.75;8418150;28;20236;-79
2022/02/01 18:22:29;;;;;;;1.20;0.90;;;;;;;5.65;66.47;97242.22;8417418;28;20230;-78
2022/02/01 18:26:32;;;;;;;0.80;0.77;;;;;;;5.88;66.12;97257.66;8417871;28;20222;-79
2022/02/01 18:30:39;;;;;;;0.80;0.80;;;;;;;5.79;66.79;97268.25;8417820;28;20229;-81
2022/02/01 18:34:43;;;;;;;1.43;1.10;;;;;;;5.96;65.93;97283.09;8416104;28;20242;-81
2022/02/01 18:38:48;;;;;;;1.43;1.20;;;;;;;6.04;65.96;97259.66;8420026;28;20222;-80
2022/02/01 18:42:58;;;;;;;2.13;1.10;;;;;;;6.15;65.27;97249.81;8420312;28;20251;-80
2022/02/01 18:47:03;;;;;;;0.90;0.80;;;;;;;6.13;65.81;97261.03;8416353;28;20233;-80
2022/02/01 18:51:15;;;;;;;0.97;0.83;;;;;;;6.22;65.80;97266.66;8416967;28;20288;-80
2022/02/01 18:55:29;;;;;;;0.80;0.80;;;;;;;5.92;66.79;97237.81;8420104;28;20230;-80
2022/02/01 18:59:41;;;;;;;0.93;0.90;;;;;;;6.37;65.67;97241.28;8426033;28;20225;-81
2022/02/01 19:08:23;;;;;;;5.63;1.60;;;;;;;8.26;75.69;97228.03;8411260;28;20234;-82
2022/02/01 19:12:28;;;;;;;0.83;0.80;;;;;;;7.82;64.10;97218.88;8417334;28;20242;-79
2022/02/01 19:16:32;;;;;;;0.90;0.77;;;;;;;7.05;63.77;97213.66;8416203;28;20226;-80
2022/02/01 19:20:36;;;;;;;1.50;0.80;;;;;;;6.94;64.58;97231.28;8416366;28;20414;-80
2022/02/01 19:24:39;;;;;;;1.03;1.00;;;;;;;6.86;64.55;97221.31;8416270;28;20230;-79
2022/02/01 19:28:45;;;;;;;1.43;1.13;;;;;;;6.88;64.79;97240.09;8415519;28;20234;-80
2022/02/01 19:32:50;;;;;;;1.27;1.17;;;;;;;6.43;65.99;97233.31;8444494;28;20238;-80
2022/02/01 19:36:53;;;;;;;0.93;0.73;;;;;;;6.20;67.83;97226.50;8415856;28;20230;-79
2022/02/01 19:40:58;;;;;;;1.60;1.10;;;;;;;6.13;68.22;97233.63;8448808;28;20226;-79
2022/02/01 19:45:10;;;;;;;1.30;0.93;;;;;;;6.22;67.80;97238.38;8452723;28;20241;-80
2022/02/01 19:49:15;;;;;;;2.30;1.20;;;;;;;6.18;68.49;97246.28;8453938;28;20241;-79
2022/02/01 19:53:18;;;;;;;2.57;1.50;;;;;;;6.25;67.77;97246.00;8439520;28;20235;-80
2022/02/01 19:57:27;;;;;;;3.17;2.53;;;;;;;6.19;68.25;97255.69;8420408;28;20231;-79
2022/02/01 20:01:38;;;;;;;1.70;1.60;;;;;;;6.17;68.62;97242.88;8420535;28;20222;-80
2022/02/01 20:05:42;;;;;;;2.70;1.37;;;;;;;6.17;69.07;97239.47;8420150;28;20520;-79
2022/02/01 20:09:55;;;;;;;1.37;1.20;;;;;;;6.37;67.96;97252.38;8421260;28;20230;-79
2022/02/01 20:13:59;;;;;;;0.80;0.80;;;;;;;6.65;66.88;97241.03;8420468;28;20554;-80
2022/02/01 20:18:03;;;;;;;1.10;1.00;;;;;;;6.74;66.83;97235.50;8421208;28;20230;-79
2022/02/01 20:22:06;;;;;;;1.10;0.90;;;;;;;6.74;67.13;97221.78;8419838;28;20227;-79
2022/02/01 20:26:12;;;;;;;1.20;0.80;;;;;;;6.72;67.51;97231.31;8420986;28;20226;-79
2022/02/01 20:30:33;;;;;;;3.20;1.17;;;;;;;6.89;67.24;97216.00;8419055;28;20275;-80
2022/02/01 20:34:40;;;;;;;1.17;1.07;;;;;;;6.90;67.45;97232.31;8420315;28;20233;-80
2022/02/01 20:38:46;;;;;;;0.70;0.70;;;;;;;6.70;67.92;97230.53;8419454;28;20238;-80
2022/02/01 20:42:53;;;;;;;1.23;0.97;;;;;;;6.63;67.98;97250.53;8422007;28;20243;-79
2022/02/01 20:46:56;;;;;;;1.20;0.90;;;;;;;6.71;68.15;97270.81;8420649;28;20409;-80
2022/02/01 20:51:01;;;;;;;1.73;1.03;;;;;;;6.80;68.22;97271.28;8421369;28;20234;-79
2022/02/01 20:55:05;;;;;;;1.73;1.10;;;;;;;6.70;68.58;97251.97;8419294;28;20421;-79
2022/02/01 20:59:08;;;;;;;1.27;1.00;;;;;;;6.84;68.30;97256.56;8420361;28;20222;-80
2022/02/01 21:03:11;;;;;;;1.07;0.97;;;;;;;6.94;68.16;97262.16;8419464;28;20544;-80
2022/02/01 21:07:18;;;;;;;1.97;1.70;;;;;;;7.07;67.77;97273.63;8420294;28;20538;-81
2022/02/01 21:11:25;;;;;;;1.67;1.20;;;;;;;6.90;68.19;97245.19;8421001;28;20419;-80
2022/02/01 21:15:27;;;;;;;2.23;1.80;;;;;;;7.01;68.58;97245.56;8420951;28;20223;-80
2022/02/01 21:19:31;;;;;;;3.07;1.57;;;;;;;7.03;67.84;97238.63;8420552;28;20241;-80
2022/02/01 21:23:35;;;;;;;1.90;1.70;;;;;;;6.90;68.62;97251.16;8419745;28;20229;-81